createdAt,value
2019-01-31T00:02:17.974Z,1.00
2019-01-31T00:05:21.698Z,1.00
2019-01-31T00:08:19.581Z,1.00
2019-01-31T00:11:29.020Z,1.10
2019-01-31T00:14:24.678Z,1.10
2019-01-31T00:17:34.786Z,1.20
2019-01-31T00:20:18.117Z,1.30
2019-01-31T00:23:27.018Z,1.30
2019-01-31T00:26:22.299Z,1.30
2019-01-31T00:29:06.792Z,1.40
2019-01-31T00:32:08.515Z,1.50
2019-01-31T00:35:28.471Z,1.60
2019-01-31T00:38:28.198Z,1.70
2019-01-31T00:41:27.651Z,1.70
2019-01-31T00:44:03.649Z,1.80
2019-01-31T00:46:53.077Z,1.80
2019-01-31T00:49:50.814Z,1.80
2019-01-31T00:52:58.025Z,1.90
2019-01-31T00:55:56.177Z,1.80
2019-01-31T00:58:41.754Z,1.80
2019-01-31T01:01:52.918Z,1.70
2019-01-31T01:04:57.289Z,1.70
2019-01-31T01:07:59.336Z,1.60
2019-01-31T01:11:03.833Z,1.50
2019-01-31T01:13:48.627Z,1.40
2019-01-31T01:16:39.758Z,1.40
2019-01-31T01:19:46.774Z,1.30
2019-01-31T01:22:53.053Z,1.30
2019-01-31T01:26:13.129Z,1.20
2019-01-31T01:29:19.747Z,1.10
2019-01-31T01:32:33.652Z,1.10
2019-01-31T01:35:31.521Z,1.10
2019-01-31T01:38:31.069Z,1.00
2019-01-31T01:41:24.227Z,0.90
2019-01-31T01:44:15.885Z,0.80
2019-01-31T01:47:02.307Z,0.80
2019-01-31T01:49:38.780Z,0.90
2019-01-31T01:52:44.153Z,0.90
2019-01-31T01:55:42.353Z,0.80
2019-01-31T01:58:33.269Z,0.70
2019-01-31T02:01:29.592Z,0.60
2019-01-31T02:04:17.018Z,0.50
2019-01-31T02:07:17.842Z,0.50
2019-01-31T02:10:06.165Z,0.40
2019-01-31T02:12:54.898Z,0.40
2019-01-31T02:15:33.429Z,0.40
2019-01-31T02:18:15.729Z,0.40
2019-01-31T02:21:29.533Z,0.40
2019-01-31T02:24:29.697Z,0.40
2019-01-31T02:27:54.703Z,0.40
2019-01-31T02:30:56.862Z,0.30
2019-01-31T02:33:50.637Z,0.30
2019-01-31T02:37:05.193Z,0.20
2019-01-31T02:39:49.006Z,0.20
2019-01-31T02:42:38.158Z,0.10
2019-01-31T02:45:37.475Z,0.10
2019-01-31T02:48:58.779Z,0.10
2019-01-31T02:52:06.091Z,0.10
2019-01-31T02:54:43.686Z,0.10
2019-01-31T02:57:56.929Z,0.10
2019-01-31T03:00:50.296Z,0.10
2019-01-31T03:04:10.478Z,0.00
2019-01-31T03:07:16.388Z,0.10
2019-01-31T03:10:26.401Z,0.00
2019-01-31T03:13:19.043Z,0.00
2019-01-31T03:16:17.825Z,-0.10
2019-01-31T03:19:07.967Z,-0.10
2019-01-31T03:22:30.157Z,-0.10
2019-01-31T03:25:16.654Z,-0.10
2019-01-31T03:28:15.314Z,-0.20
2019-01-31T03:31:15.981Z,-0.20
2019-01-31T03:34:15.921Z,-0.20
2019-01-31T03:37:18.176Z,-0.20
2019-01-31T03:40:32.023Z,-0.20
2019-01-31T03:43:29.524Z,-0.20
2019-01-31T03:46:20.904Z,-0.20
2019-01-31T03:49:15.293Z,-0.20
2019-01-31T03:52:09.177Z,-0.20
2019-01-31T03:55:11.834Z,-0.20
2019-01-31T03:58:20.566Z,-0.30
2019-01-31T04:01:45.890Z,-0.20
2019-01-31T04:04:20.447Z,-0.20
2019-01-31T04:06:49.909Z,-0.20
2019-01-31T04:09:19.337Z,-0.20
2019-01-31T04:11:48.777Z,-0.20
2019-01-31T04:14:18.246Z,-0.10
2019-01-31T04:16:47.670Z,0.00
2019-01-31T04:19:17.111Z,0.00
2019-01-31T04:21:46.883Z,0.10
2019-01-31T04:24:16.338Z,0.10
2019-01-31T04:26:45.768Z,0.20
2019-01-31T04:29:15.209Z,0.20
2019-01-31T04:31:44.625Z,0.30
2019-01-31T04:34:14.049Z,0.30
2019-01-31T04:36:43.519Z,0.30
2019-01-31T04:39:12.941Z,0.30
2019-01-31T04:41:42.357Z,0.30
2019-01-31T04:44:11.821Z,0.30
2019-01-31T04:46:41.310Z,0.30
2019-01-31T04:49:11.045Z,0.30
2019-01-31T04:51:40.465Z,0.30
2019-01-31T04:54:09.884Z,0.30
2019-01-31T04:56:39.308Z,0.30
2019-01-31T04:59:08.720Z,0.30
2019-01-31T05:01:39.115Z,0.30
2019-01-31T05:04:09.864Z,0.30
2019-01-31T05:06:39.311Z,0.30
2019-01-31T05:09:08.740Z,0.30
2019-01-31T05:11:38.158Z,0.30
2019-01-31T05:14:07.584Z,0.20
2019-01-31T05:16:37.009Z,0.20
2019-01-31T05:19:17.999Z,0.20
2019-01-31T05:21:47.553Z,0.20
2019-01-31T05:24:17.163Z,0.20
2019-01-31T05:26:46.575Z,0.20
2019-01-31T05:29:16.026Z,0.30
2019-01-31T05:31:45.473Z,0.40
2019-01-31T05:34:14.931Z,0.40
2019-01-31T05:36:44.357Z,0.40
2019-01-31T05:39:13.773Z,0.40
2019-01-31T05:41:43.236Z,0.40
2019-01-31T05:44:12.653Z,0.40
2019-01-31T05:46:43.129Z,0.40
2019-01-31T05:49:12.585Z,0.40
2019-01-31T05:51:42.289Z,0.40
2019-01-31T05:56:52.657Z,0.40
2019-01-31T05:59:22.361Z,0.40
2019-01-31T06:01:51.800Z,0.30
2019-01-31T06:04:21.359Z,0.40
2019-01-31T06:06:51.022Z,0.40
2019-01-31T06:09:20.456Z,0.50
2019-01-31T06:11:50.011Z,0.50
2019-01-31T06:14:19.610Z,0.60
2019-01-31T06:16:55.313Z,0.60
2019-01-31T06:19:24.822Z,0.70
2019-01-31T06:21:54.310Z,0.70
2019-01-31T06:24:24.137Z,0.70
2019-01-31T06:26:53.614Z,0.70
2019-01-31T06:29:23.145Z,0.70
2019-01-31T06:31:52.558Z,0.70
2019-01-31T06:34:22.002Z,0.70
2019-01-31T06:36:51.708Z,0.70
2019-01-31T06:39:21.157Z,0.80
2019-01-31T06:41:50.610Z,0.80
2019-01-31T06:44:20.026Z,0.90
2019-01-31T06:46:49.445Z,0.90
2019-01-31T06:49:19.121Z,0.90
2019-01-31T06:51:48.629Z,0.90
2019-01-31T06:54:18.062Z,0.90
2019-01-31T06:56:47.490Z,0.90
2019-01-31T06:59:16.915Z,0.90
2019-01-31T07:01:46.335Z,0.90
2019-01-31T07:04:15.783Z,0.90
2019-01-31T07:06:45.449Z,0.90
2019-01-31T07:09:14.875Z,0.90
2019-01-31T07:11:44.296Z,0.90
2019-01-31T07:14:13.773Z,0.90
2019-01-31T07:16:43.385Z,0.90
2019-01-31T07:19:12.814Z,1.00
2019-01-31T07:21:42.250Z,1.00
2019-01-31T07:24:11.682Z,1.00
2019-01-31T07:26:41.593Z,1.00
2019-01-31T07:29:11.208Z,1.00
2019-01-31T07:31:40.621Z,1.00
2019-01-31T07:34:10.058Z,1.00
2019-01-31T07:36:39.517Z,1.00
2019-01-31T07:39:09.223Z,0.90
2019-01-31T07:41:41.427Z,0.90
2019-01-31T07:44:09.805Z,0.90
2019-01-31T07:46:39.256Z,0.90
2019-01-31T07:49:08.844Z,0.90
2019-01-31T07:51:38.301Z,0.90
2019-01-31T07:54:07.747Z,0.90
2019-01-31T07:56:37.185Z,0.90
2019-01-31T07:59:06.629Z,0.90
2019-01-31T08:01:36.054Z,0.90
2019-01-31T08:04:06.608Z,1.00
2019-01-31T08:06:36.159Z,1.00
2019-01-31T08:09:08.263Z,1.00
2019-01-31T08:11:37.662Z,1.10
2019-01-31T08:14:07.410Z,1.10
2019-01-31T08:16:36.860Z,1.10
2019-01-31T08:19:06.531Z,1.00
2019-01-31T08:21:36.058Z,1.00
2019-01-31T08:24:05.602Z,1.00
2019-01-31T08:26:35.018Z,0.90
2019-01-31T08:29:04.497Z,0.90
2019-01-31T08:31:33.950Z,0.90
2019-01-31T08:34:03.378Z,0.80
2019-01-31T08:36:32.854Z,0.80
2019-01-31T08:39:02.302Z,0.70
2019-01-31T08:41:32.996Z,0.70
2019-01-31T08:44:02.442Z,0.70
2019-01-31T08:46:31.850Z,0.70
2019-01-31T08:49:02.203Z,0.80
2019-01-31T08:51:31.822Z,0.80
2019-01-31T08:54:01.266Z,0.80
2019-01-31T08:56:30.690Z,0.70
2019-01-31T08:59:00.118Z,0.60
2019-01-31T09:01:29.542Z,0.50
2019-01-31T09:03:58.966Z,0.50
2019-01-31T09:06:29.361Z,0.60
2019-01-31T09:08:58.821Z,0.50
2019-01-31T09:11:28.250Z,0.50
2019-01-31T09:13:57.691Z,0.50
2019-01-31T09:16:27.165Z,0.50
2019-01-31T09:18:56.899Z,0.50
2019-01-31T09:21:51.110Z,0.50
2019-01-31T09:24:43.401Z,0.50
2019-01-31T09:27:41.437Z,0.50
2019-01-31T09:30:46.713Z,0.40
2019-01-31T09:34:03.610Z,0.30
2019-01-31T09:37:13.938Z,0.30
2019-01-31T09:40:12.926Z,0.30
2019-01-31T09:42:48.586Z,0.30
2019-01-31T09:46:05.666Z,0.50
2019-01-31T09:49:07.765Z,0.50
2019-01-31T09:52:17.869Z,0.50
2019-01-31T09:55:25.771Z,0.50
2019-01-31T09:58:31.574Z,0.50
2019-01-31T10:01:37.341Z,0.40
2019-01-31T10:04:34.797Z,0.30
2019-01-31T10:07:29.395Z,0.30
2019-01-31T10:10:12.408Z,0.30
2019-01-31T10:13:13.038Z,0.40
2019-01-31T10:19:35.860Z,0.20
2019-01-31T10:22:31.873Z,0.10
2019-01-31T10:25:42.795Z,0.10
2019-01-31T10:28:48.766Z,-0.10
2019-01-31T10:31:59.613Z,-0.10
2019-01-31T10:35:15.699Z,-0.20
2019-01-31T10:38:27.492Z,-0.10
2019-01-31T10:41:46.538Z,0.10
2019-01-31T10:44:43.117Z,0.10
2019-01-31T10:47:54.657Z,0.20
2019-01-31T10:50:41.683Z,0.20
2019-01-31T10:53:36.775Z,0.20
2019-01-31T10:56:59.922Z,0.20
2019-01-31T11:00:07.222Z,0.30
2019-01-31T11:03:27.290Z,0.40
2019-01-31T11:06:30.189Z,0.50
2019-01-31T11:09:35.418Z,0.40
2019-01-31T11:13:00.015Z,0.40
2019-01-31T11:15:35.869Z,0.40
2019-01-31T11:18:31.550Z,0.30
2019-01-31T11:21:32.263Z,0.30
2019-01-31T11:24:38.053Z,0.30
2019-01-31T11:27:55.216Z,0.40
2019-01-31T11:30:40.859Z,0.50
2019-01-31T11:33:51.035Z,0.40
2019-01-31T11:36:40.064Z,0.60
2019-01-31T11:39:46.737Z,0.60
2019-01-31T11:43:13.426Z,0.70
2019-01-31T11:46:08.929Z,0.50
2019-01-31T11:48:59.621Z,0.50
2019-01-31T11:52:05.694Z,0.60
2019-01-31T11:55:10.862Z,0.60
2019-01-31T11:58:08.796Z,0.50
2019-01-31T12:00:38.263Z,0.40
2019-01-31T12:03:07.713Z,0.60
2019-01-31T12:05:37.158Z,0.60
2019-01-31T12:08:06.590Z,0.50
2019-01-31T12:10:36.027Z,0.50
2019-01-31T12:13:23.459Z,0.50
2019-01-31T12:15:49.290Z,0.60
2019-01-31T12:18:18.756Z,0.60
2019-01-31T12:20:48.195Z,0.50
2019-01-31T12:23:17.894Z,0.40
2019-01-31T12:25:47.349Z,0.30
2019-01-31T12:28:16.770Z,0.40
2019-01-31T12:30:46.971Z,0.60
2019-01-31T12:33:16.395Z,0.60
2019-01-31T12:35:46.804Z,0.50
2019-01-31T12:38:16.216Z,0.40
2019-01-31T12:40:45.785Z,0.30
2019-01-31T12:43:15.459Z,0.40
2019-01-31T12:45:44.882Z,0.40
2019-01-31T12:48:14.289Z,0.40
2019-01-31T12:50:44.117Z,0.40
2019-01-31T12:53:13.550Z,0.40
2019-01-31T12:55:42.969Z,0.40
2019-01-31T12:58:12.671Z,0.40
2019-01-31T13:00:43.295Z,0.30
2019-01-31T13:03:12.718Z,0.30
2019-01-31T13:05:42.810Z,0.40
2019-01-31T13:08:13.214Z,0.40
2019-01-31T13:10:42.649Z,0.40
2019-01-31T13:16:03.517Z,0.30
2019-01-31T13:18:34.062Z,0.30
2019-01-31T13:21:04.001Z,0.40
2019-01-31T13:23:33.462Z,0.40
2019-01-31T13:26:02.993Z,0.40
2019-01-31T13:28:32.410Z,0.40
2019-01-31T13:31:01.841Z,0.60
2019-01-31T13:33:31.257Z,0.50
2019-01-31T13:36:00.669Z,0.40
2019-01-31T13:38:30.114Z,0.50
2019-01-31T13:40:59.611Z,0.60
2019-01-31T13:43:29.249Z,0.60
2019-01-31T13:45:58.655Z,0.70
2019-01-31T13:48:28.075Z,0.70
2019-01-31T13:50:57.508Z,0.70
2019-01-31T13:53:26.949Z,0.70
2019-01-31T13:55:56.430Z,0.60
2019-01-31T13:58:25.896Z,0.50
2019-01-31T14:00:55.309Z,0.40
2019-01-31T14:03:24.725Z,0.40
2019-01-31T14:05:54.149Z,0.50
2019-01-31T14:08:23.561Z,0.60
2019-01-31T14:10:52.985Z,0.60
2019-01-31T14:13:22.619Z,0.70
2019-01-31T14:15:53.895Z,0.70
2019-01-31T14:18:23.191Z,0.70
2019-01-31T14:20:52.598Z,0.70
2019-01-31T14:23:22.009Z,0.70
2019-01-31T14:25:51.418Z,0.70
2019-01-31T14:28:20.842Z,0.60
2019-01-31T14:30:51.416Z,0.50
2019-01-31T14:33:25.123Z,0.40
2019-01-31T14:35:57.914Z,0.30
2019-01-31T14:38:27.662Z,0.30
2019-01-31T14:40:57.223Z,0.30
2019-01-31T14:43:26.649Z,0.20
2019-01-31T14:45:56.066Z,0.20
2019-01-31T14:48:25.518Z,0.30
2019-01-31T14:50:54.922Z,0.30
2019-01-31T14:53:24.371Z,0.20
2019-01-31T14:55:55.579Z,0.20
2019-01-31T14:58:24.962Z,0.20
2019-01-31T15:00:54.377Z,0.20
2019-01-31T15:03:23.819Z,0.20
2019-01-31T15:05:53.263Z,0.30
2019-01-31T15:08:22.704Z,0.20
2019-01-31T15:10:52.629Z,0.10
2019-01-31T15:13:22.338Z,-0.10
2019-01-31T15:15:51.853Z,-0.20
2019-01-31T15:18:21.299Z,-0.20
2019-01-31T15:20:50.704Z,-0.30
2019-01-31T15:23:20.165Z,-0.20
2019-01-31T15:25:49.598Z,-0.20
2019-01-31T15:28:19.081Z,-0.10
2019-01-31T15:30:48.540Z,-0.10
2019-01-31T15:33:18.023Z,-0.10
2019-01-31T15:35:47.582Z,-0.10
2019-01-31T15:38:17.024Z,-0.10
2019-01-31T15:40:47.747Z,-0.10
2019-01-31T15:43:17.196Z,0.00
2019-01-31T15:45:46.697Z,0.00
2019-01-31T15:48:16.409Z,0.00
2019-01-31T15:50:45.841Z,0.00
2019-01-31T15:53:15.284Z,0.00
2019-01-31T15:55:44.705Z,-0.10
2019-01-31T15:58:14.123Z,-0.20
2019-01-31T16:00:46.464Z,-0.30
2019-01-31T16:03:17.879Z,-0.30
2019-01-31T16:05:47.516Z,-0.30
2019-01-31T16:08:17.201Z,-0.30
2019-01-31T16:10:46.826Z,-0.40
2019-01-31T16:13:19.604Z,-0.30
2019-01-31T16:15:49.135Z,-0.40
2019-01-31T16:18:18.721Z,-0.30
2019-01-31T16:20:48.204Z,-0.20
2019-01-31T16:23:17.659Z,-0.20
2019-01-31T16:25:47.942Z,-0.20
2019-01-31T16:28:17.948Z,-0.20
2019-01-31T16:30:48.021Z,-0.30
2019-01-31T16:33:17.772Z,-0.20
2019-01-31T16:35:49.052Z,-0.20
2019-01-31T16:38:18.538Z,-0.20
2019-01-31T16:40:48.108Z,-0.20
2019-01-31T16:43:17.558Z,-0.20
2019-01-31T16:45:46.975Z,-0.30
2019-01-31T16:48:16.389Z,-0.30
2019-01-31T16:50:45.849Z,-0.40
2019-01-31T16:53:15.282Z,-0.40
2019-01-31T16:55:44.745Z,-0.40
2019-01-31T16:58:14.225Z,-0.50
2019-01-31T17:00:43.654Z,-0.70
2019-01-31T17:03:13.664Z,-0.60
2019-01-31T17:05:43.445Z,-0.70
2019-01-31T17:08:12.913Z,-0.70
2019-01-31T17:10:42.340Z,-0.60
2019-01-31T17:13:20.590Z,-0.70
2019-01-31T17:15:50.094Z,-0.70
2019-01-31T17:18:19.538Z,-0.60
2019-01-31T17:20:49.000Z,-0.60
2019-01-31T17:23:18.455Z,-0.60
2019-01-31T17:25:47.891Z,-0.60
2019-01-31T17:28:17.382Z,-0.60
2019-01-31T17:30:48.161Z,-0.70
2019-01-31T17:33:17.635Z,-0.70
2019-01-31T17:35:47.065Z,-0.70
2019-01-31T17:38:16.546Z,-0.80
2019-01-31T17:40:46.017Z,-0.80
2019-01-31T17:43:15.469Z,-0.80
2019-01-31T17:45:44.972Z,-0.80
2019-01-31T17:48:16.781Z,-0.80
2019-01-31T17:50:46.788Z,-0.70
2019-01-31T17:53:16.241Z,-0.70
2019-01-31T17:55:47.013Z,-0.80
2019-01-31T17:58:16.476Z,-0.70
2019-01-31T18:00:49.459Z,-0.70
2019-01-31T18:03:19.134Z,-0.80
2019-01-31T18:05:48.650Z,-0.80
2019-01-31T18:08:18.106Z,-0.80
2019-01-31T18:10:47.852Z,-0.80
2019-01-31T18:13:19.549Z,-0.80
2019-01-31T18:15:49.350Z,-0.80
2019-01-31T18:18:18.835Z,-0.80
2019-01-31T18:20:48.354Z,-0.90
2019-01-31T18:23:17.776Z,-0.90
2019-01-31T18:25:47.226Z,-0.90
2019-01-31T18:28:16.697Z,-0.90
2019-01-31T18:30:46.186Z,-0.90
2019-01-31T18:33:16.099Z,-0.90
2019-01-31T18:35:45.522Z,-0.90
2019-01-31T18:38:15.241Z,-0.90
2019-01-31T18:40:44.726Z,-0.90
2019-01-31T18:43:14.231Z,-0.90
2019-01-31T18:45:52.902Z,-0.90
2019-01-31T18:48:14.870Z,-0.80
2019-01-31T18:50:44.290Z,-0.90
2019-01-31T18:53:13.919Z,-0.90
2019-01-31T18:55:43.320Z,-0.90
2019-01-31T18:58:13.148Z,-0.90
2019-01-31T19:00:45.146Z,-1.00
2019-01-31T19:03:14.598Z,-1.00
2019-01-31T19:05:44.045Z,-1.00
2019-01-31T19:08:13.462Z,-1.00
2019-01-31T19:11:00.236Z,-1.00
2019-01-31T19:13:29.875Z,-1.00
2019-01-31T19:16:05.137Z,-1.00
2019-01-31T19:18:30.513Z,-1.00
2019-01-31T19:21:00.007Z,-1.00
2019-01-31T19:23:29.434Z,-0.90
2019-01-31T19:25:58.870Z,-0.90
2019-01-31T19:28:28.325Z,-0.90
2019-01-31T19:30:57.771Z,-0.90
2019-01-31T19:33:27.252Z,-0.90
2019-01-31T19:35:56.682Z,-0.90
2019-01-31T19:38:26.362Z,-0.90
2019-01-31T19:40:55.852Z,-0.90
2019-01-31T19:43:25.302Z,-0.90
2019-01-31T19:45:54.786Z,-0.90
2019-01-31T19:48:24.374Z,-0.90
2019-01-31T19:50:53.879Z,-0.90
2019-01-31T19:53:23.336Z,-1.00
2019-01-31T19:55:53.194Z,-1.00
2019-01-31T19:58:22.722Z,-1.00
2019-01-31T20:00:52.662Z,-1.10
2019-01-31T20:03:22.096Z,-1.10
2019-01-31T20:05:51.646Z,-1.20
2019-01-31T20:08:21.078Z,-1.20
2019-01-31T20:10:51.017Z,-1.10
2019-01-31T20:13:20.485Z,-1.00
2019-01-31T20:15:49.909Z,-1.00
2019-01-31T20:18:19.412Z,-1.00
2019-01-31T20:20:48.850Z,-1.10
2019-01-31T20:23:18.284Z,-1.10
2019-01-31T20:25:47.740Z,-1.10
2019-01-31T20:28:17.170Z,-1.10
2019-01-31T20:30:46.658Z,-1.10
2019-01-31T20:33:16.126Z,-1.10
2019-01-31T20:35:45.603Z,-1.10
2019-01-31T20:38:15.067Z,-1.10
2019-01-31T20:40:44.794Z,-1.10
2019-01-31T20:43:14.220Z,-1.10
2019-01-31T20:45:43.927Z,-1.00
2019-01-31T20:48:13.410Z,-1.00
2019-01-31T20:50:43.419Z,-1.00
2019-01-31T20:53:13.177Z,-1.00
2019-01-31T20:55:42.763Z,-1.00
2019-01-31T20:58:12.203Z,-1.00
2019-01-31T21:00:46.233Z,-1.00
2019-01-31T21:03:15.866Z,-1.00
2019-01-31T21:05:45.556Z,-1.00
2019-01-31T21:08:15.226Z,-1.00
2019-01-31T21:10:44.769Z,-1.00
2019-01-31T21:13:20.066Z,-1.00
2019-01-31T21:15:49.541Z,-1.00
2019-01-31T21:18:18.970Z,-0.90
2019-01-31T21:20:48.395Z,-0.90
2019-01-31T21:23:17.826Z,-0.90
2019-01-31T21:25:48.667Z,-0.90
2019-01-31T21:28:18.113Z,-0.80
2019-01-31T21:30:47.544Z,-0.80
2019-01-31T21:33:17.004Z,-0.80
2019-01-31T21:35:46.450Z,-0.80
2019-01-31T21:38:16.415Z,-0.80
2019-01-31T21:40:45.882Z,-0.80
2019-01-31T21:43:16.379Z,-0.80
2019-01-31T21:45:45.847Z,-0.80
2019-01-31T21:48:15.290Z,-0.80
2019-01-31T21:50:44.717Z,-0.80
2019-01-31T21:53:14.154Z,-0.80
2019-01-31T21:55:43.610Z,-0.80
2019-01-31T21:58:13.281Z,-0.80
2019-01-31T22:00:42.729Z,-0.80
2019-01-31T22:03:12.153Z,-0.80
2019-01-31T22:05:41.583Z,-0.70
2019-01-31T22:08:11.033Z,-0.70
2019-01-31T22:10:40.474Z,-0.70
2019-01-31T22:13:09.915Z,-0.70
2019-01-31T22:15:39.342Z,-0.60
2019-01-31T22:18:08.787Z,-0.60
2019-01-31T22:20:38.241Z,-0.60
2019-01-31T22:23:07.695Z,-0.60
2019-01-31T22:25:37.602Z,-0.60
2019-01-31T22:28:08.023Z,-0.60
2019-01-31T22:30:38.057Z,-0.60
2019-01-31T22:33:08.721Z,-0.60
2019-01-31T22:35:38.387Z,-0.60
2019-01-31T22:38:07.828Z,-0.60
2019-01-31T22:40:37.415Z,-0.60
2019-01-31T22:43:06.865Z,-0.60
2019-01-31T22:45:36.746Z,-0.60
2019-01-31T22:48:06.805Z,-0.60
2019-01-31T22:50:36.245Z,-0.60
2019-01-31T22:53:05.979Z,-0.60
2019-01-31T22:55:35.479Z,-0.60
2019-01-31T22:58:05.833Z,-0.60
2019-01-31T23:00:51.346Z,-0.60
2019-01-31T23:03:21.378Z,-0.60
2019-01-31T23:05:50.843Z,-0.60
2019-01-31T23:08:20.274Z,-0.60
2019-01-31T23:10:49.708Z,-0.60
2019-01-31T23:13:19.138Z,-0.60
2019-01-31T23:15:48.584Z,-0.50
2019-01-31T23:18:18.041Z,-0.50
2019-01-31T23:20:47.492Z,-0.50
2019-01-31T23:23:16.923Z,-0.50
2019-01-31T23:25:46.552Z,-0.60
2019-01-31T23:28:16.195Z,-0.60
2019-01-31T23:30:45.646Z,-0.60
2019-01-31T23:33:15.098Z,-0.50
2019-01-31T23:35:44.547Z,-0.50
2019-01-31T23:38:14.021Z,-0.50
2019-01-31T23:40:43.721Z,-0.50
2019-01-31T23:43:13.179Z,-0.50
2019-01-31T23:45:42.613Z,-0.50
2019-01-31T23:48:12.034Z,-0.50
2019-01-31T23:50:41.994Z,-0.40
2019-01-31T23:53:11.466Z,-0.40
2019-01-31T23:55:41.161Z,-0.40
2019-01-31T23:58:10.615Z,-0.40
